sensor_id;sensor_type;location;lat;lon;timestamp;pressure;altitude;pressure_sealevel;temperature;humidity
48563;BME280;34981;49.104;11.396;2023-07-13T00:01:57;103868.91;;;19.01;100.00
48563;BME280;34981;49.104;11.396;2023-07-13T00:04:25;104114.50;;;18.91;100.00
48563;BME280;34981;49.104;11.396;2023-07-13T00:06:52;104151.31;;;18.86;100.00
48563;BME280;34981;49.104;11.396;2023-07-13T00:09:20;104125.28;;;18.82;100.00
48563;BME280;34981;49.104;11.396;2023-07-13T00:11:53;104119.19;;;18.78;100.00
48563;BME280;34981;49.104;11.396;2023-07-13T00:14:21;104095.75;;;18.87;100.00
48563;BME280;34981;49.104;11.396;2023-07-13T00:16:48;104050.34;;;18.86;100.00
48563;BME280;34981;49.104;11.396;2023-07-13T00:19:15;104027.28;;;18.90;100.00
48563;BME280;34981;49.104;11.396;2023-07-13T00:21:42;103980.00;;;18.89;100.00
48563;BME280;34981;49.104;11.396;2023-07-13T00:24:11;103935.47;;;18.89;100.00
48563;BME280;34981;49.104;11.396;2023-07-13T00:26:40;103883.41;;;18.81;100.00
48563;BME280;34981;49.104;11.396;2023-07-13T00:29:08;103856.38;;;18.78;100.00
48563;BME280;34981;49.104;11.396;2023-07-13T00:31:36;103837.75;;;18.83;100.00
48563;BME280;34981;49.104;11.396;2023-07-13T00:34:04;103789.41;;;18.74;100.00
48563;BME280;34981;49.104;11.396;2023-07-13T00:36:31;103776.25;;;18.79;100.00
48563;BME280;34981;49.104;11.396;2023-07-13T00:38:59;103737.72;;;18.72;100.00
48563;BME280;34981;49.104;11.396;2023-07-13T00:41:26;103736.03;;;18.81;100.00
48563;BME280;34981;49.104;11.396;2023-07-13T00:43:53;103686.59;;;18.74;100.00
48563;BME280;34981;49.104;11.396;2023-07-13T00:46:24;103663.38;;;18.80;100.00
48563;BME280;34981;49.104;11.396;2023-07-13T00:48:53;103622.56;;;18.78;100.00
48563;BME280;34981;49.104;11.396;2023-07-13T00:51:22;103586.94;;;18.70;100.00
48563;BME280;34981;49.104;11.396;2023-07-13T00:53:52;103566.25;;;18.67;100.00
48563;BME280;34981;49.104;11.396;2023-07-13T00:56:20;103535.78;;;18.62;100.00
48563;BME280;34981;49.104;11.396;2023-07-13T00:58:47;103522.72;;;18.66;100.00
48563;BME280;34981;49.104;11.396;2023-07-13T01:01:15;103513.97;;;18.72;100.00
48563;BME280;34981;49.104;11.396;2023-07-13T01:03:43;103493.63;;;18.86;100.00
48563;BME280;34981;49.104;11.396;2023-07-13T01:06:10;103439.34;;;18.83;100.00
48563;BME280;34981;49.104;11.396;2023-07-13T01:08:38;103388.22;;;18.75;100.00
48563;BME280;34981;49.104;11.396;2023-07-13T01:11:06;103355.47;;;18.75;100.00
48563;BME280;34981;49.104;11.396;2023-07-13T01:13:35;103309.22;;;18.64;100.00
48563;BME280;34981;49.104;11.396;2023-07-13T01:16:04;103304.91;;;18.71;100.00
48563;BME280;34981;49.104;11.396;2023-07-13T01:18:33;103244.63;;;18.74;100.00
48563;BME280;34981;49.104;11.396;2023-07-13T01:21:01;103217.06;;;18.77;100.00
48563;BME280;34981;49.104;11.396;2023-07-13T01:23:29;103163.06;;;18.71;100.00
48563;BME280;34981;49.104;11.396;2023-07-13T01:25:56;103134.50;;;18.75;100.00
48563;BME280;34981;49.104;11.396;2023-07-13T01:28:24;103074.06;;;18.70;100.00
48563;BME280;34981;49.104;11.396;2023-07-13T01:30:54;103040.47;;;18.70;100.00
48563;BME280;34981;49.104;11.396;2023-07-13T01:33:22;103008.31;;;18.63;100.00
48563;BME280;34981;49.104;11.396;2023-07-13T01:35:49;102982.78;;;18.55;100.00
48563;BME280;34981;49.104;11.396;2023-07-13T01:38:18;102963.34;;;18.40;100.00
48563;BME280;34981;49.104;11.396;2023-07-13T01:40:46;102940.69;;;18.30;100.00
48563;BME280;34981;49.104;11.396;2023-07-13T01:43:13;102969.19;;;18.45;100.00
48563;BME280;34981;49.104;11.396;2023-07-13T01:45:40;102932.59;;;18.48;100.00
48563;BME280;34981;49.104;11.396;2023-07-13T01:48:10;102893.25;;;18.50;100.00
48563;BME280;34981;49.104;11.396;2023-07-13T01:50:38;102846.63;;;18.44;100.00
48563;BME280;34981;49.104;11.396;2023-07-13T01:53:07;102825.84;;;18.43;100.00
48563;BME280;34981;49.104;11.396;2023-07-13T01:55:34;102804.16;;;18.41;100.00
48563;BME280;34981;49.104;11.396;2023-07-13T01:58:02;102774.81;;;18.35;100.00
48563;BME280;34981;49.104;11.396;2023-07-13T02:00:30;102733.53;;;18.30;100.00
48563;BME280;34981;49.104;11.396;2023-07-13T02:02:57;102704.38;;;18.13;100.00
48563;BME280;34981;49.104;11.396;2023-07-13T02:05:25;102713.88;;;18.09;100.00
48563;BME280;34981;49.104;11.396;2023-07-13T02:07:52;102713.97;;;18.17;100.00
48563;BME280;34981;49.104;11.396;2023-07-13T02:10:20;102693.72;;;18.19;100.00
48563;BME280;34981;49.104;11.396;2023-07-13T02:12:48;102659.06;;;18.12;100.00
48563;BME280;34981;49.104;11.396;2023-07-13T02:15:15;102576.03;;;17.80;100.00
48563;BME280;34981;49.104;11.396;2023-07-13T02:17:42;102568.97;;;17.60;100.00
48563;BME280;34981;49.104;11.396;2023-07-13T02:20:09;102600.22;;;17.66;100.00
48563;BME280;34981;49.104;11.396;2023-07-13T02:22:36;102610.41;;;17.81;100.00
48563;BME280;34981;49.104;11.396;2023-07-13T02:25:04;102542.88;;;17.67;100.00
48563;BME280;34981;49.104;11.396;2023-07-13T02:27:31;102550.09;;;17.76;100.00
48563;BME280;34981;49.104;11.396;2023-07-13T02:29:59;102543.09;;;17.92;100.00
48563;BME280;34981;49.104;11.396;2023-07-13T02:32:26;102485.28;;;17.80;100.00
48563;BME280;34981;49.104;11.396;2023-07-13T02:34:53;102429.97;;;17.62;100.00
48563;BME280;34981;49.104;11.396;2023-07-13T02:37:21;102394.97;;;17.49;100.00
48563;BME280;34981;49.104;11.396;2023-07-13T02:39:48;102437.53;;;17.68;100.00
48563;BME280;34981;49.104;11.396;2023-07-13T02:42:15;102372.25;;;17.58;100.00
48563;BME280;34981;49.104;11.396;2023-07-13T02:44:44;102323.13;;;17.42;100.00
48563;BME280;34981;49.104;11.396;2023-07-13T02:47:11;102338.81;;;17.48;100.00
48563;BME280;34981;49.104;11.396;2023-07-13T02:49:38;102361.91;;;17.62;100.00
48563;BME280;34981;49.104;11.396;2023-07-13T02:52:05;102325.19;;;17.66;100.00
48563;BME280;34981;49.104;11.396;2023-07-13T02:54:33;102229.81;;;17.32;100.00
48563;BME280;34981;49.104;11.396;2023-07-13T02:57:00;102281.69;;;17.56;100.00
48563;BME280;34981;49.104;11.396;2023-07-13T02:59:27;102194.28;;;17.33;100.00
48563;BME280;34981;49.104;11.396;2023-07-13T03:01:54;102146.78;;;17.20;100.00
48563;BME280;34981;49.104;11.396;2023-07-13T03:04:21;102168.28;;;17.31;100.00
48563;BME280;34981;49.104;11.396;2023-07-13T03:06:49;102129.44;;;17.21;100.00
48563;BME280;34981;49.104;11.396;2023-07-13T03:09:16;102067.72;;;16.87;100.00
48563;BME280;34981;49.104;11.396;2023-07-13T03:11:52;102054.59;;;16.83;100.00
48563;BME280;34981;49.104;11.396;2023-07-13T03:14:25;102007.06;;;16.61;100.00
48563;BME280;34981;49.104;11.396;2023-07-13T03:16:52;102046.03;;;16.69;100.00
48563;BME280;34981;49.104;11.396;2023-07-13T03:19:23;102009.34;;;16.48;100.00
48563;BME280;34981;49.104;11.396;2023-07-13T03:21:51;102058.25;;;16.65;100.00
48563;BME280;34981;49.104;11.396;2023-07-13T03:24:18;101999.81;;;16.44;100.00
48563;BME280;34981;49.104;11.396;2023-07-13T03:26:45;102010.00;;;16.42;100.00
48563;BME280;34981;49.104;11.396;2023-07-13T03:29:13;101944.09;;;16.14;100.00
48563;BME280;34981;49.104;11.396;2023-07-13T03:31:40;101961.25;;;16.14;100.00
48563;BME280;34981;49.104;11.396;2023-07-13T03:34:07;101953.41;;;16.11;100.00
48563;BME280;34981;49.104;11.396;2023-07-13T03:36:35;101940.63;;;16.04;100.00
48563;BME280;34981;49.104;11.396;2023-07-13T03:39:06;101939.13;;;16.09;100.00
48563;BME280;34981;49.104;11.396;2023-07-13T03:41:54;101893.59;;;16.03;100.00
48563;BME280;34981;49.104;11.396;2023-07-13T03:44:22;101958.63;;;16.30;100.00
48563;BME280;34981;49.104;11.396;2023-07-13T03:46:53;101921.19;;;16.16;100.00
48563;BME280;34981;49.104;11.396;2023-07-13T03:49:21;101933.97;;;16.24;100.00
48563;BME280;34981;49.104;11.396;2023-07-13T03:51:48;101947.50;;;16.42;100.00
48563;BME280;34981;49.104;11.396;2023-07-13T03:54:20;101905.34;;;16.38;100.00
48563;BME280;34981;49.104;11.396;2023-07-13T03:56:47;101861.13;;;16.19;100.00
48563;BME280;34981;49.104;11.396;2023-07-13T03:59:16;101864.78;;;16.10;100.00
48563;BME280;34981;49.104;11.396;2023-07-13T04:01:43;101860.06;;;16.12;100.00
48563;BME280;34981;49.104;11.396;2023-07-13T04:04:12;101842.72;;;16.05;100.00
48563;BME280;34981;49.104;11.396;2023-07-13T04:06:39;101847.13;;;16.06;100.00
48563;BME280;34981;49.104;11.396;2023-07-13T04:09:06;101826.06;;;16.08;100.00
48563;BME280;34981;49.104;11.396;2023-07-13T04:11:34;101829.19;;;16.13;100.00
48563;BME280;34981;49.104;11.396;2023-07-13T04:14:03;101809.16;;;16.14;100.00
48563;BME280;34981;49.104;11.396;2023-07-13T04:16:30;101818.53;;;16.28;100.00
48563;BME280;34981;49.104;11.396;2023-07-13T04:18:57;101796.31;;;16.32;100.00
48563;BME280;34981;49.104;11.396;2023-07-13T04:21:28;101773.75;;;16.40;100.00
48563;BME280;34981;49.104;11.396;2023-07-13T04:23:56;101735.19;;;16.28;100.00
48563;BME280;34981;49.104;11.396;2023-07-13T04:26:23;101706.13;;;16.21;100.00
48563;BME280;34981;49.104;11.396;2023-07-13T04:28:50;101699.66;;;16.14;100.00
48563;BME280;34981;49.104;11.396;2023-07-13T04:31:17;101685.56;;;16.10;100.00
48563;BME280;34981;49.104;11.396;2023-07-13T04:33:45;101669.94;;;16.12;100.00
48563;BME280;34981;49.104;11.396;2023-07-13T04:36:15;101651.25;;;16.09;100.00
48563;BME280;34981;49.104;11.396;2023-07-13T04:38:42;101610.16;;;15.96;100.00
48563;BME280;34981;49.104;11.396;2023-07-13T04:41:10;101588.97;;;15.91;100.00
48563;BME280;34981;49.104;11.396;2023-07-13T04:43:37;101574.53;;;15.91;100.00
48563;BME280;34981;49.104;11.396;2023-07-13T04:46:05;101590.19;;;16.13;100.00
48563;BME280;34981;49.104;11.396;2023-07-13T04:48:33;101530.06;;;16.08;100.00
48563;BME280;34981;49.104;11.396;2023-07-13T04:51:01;101489.00;;;15.95;100.00
48563;BME280;34981;49.104;11.396;2023-07-13T04:53:28;101482.72;;;16.03;100.00
48563;BME280;34981;49.104;11.396;2023-07-13T04:55:56;101488.00;;;16.20;100.00
48563;BME280;34981;49.104;11.396;2023-07-13T04:58:23;101444.03;;;16.17;100.00
48563;BME280;34981;49.104;11.396;2023-07-13T05:00:51;101487.63;;;16.40;100.00
48563;BME280;34981;49.104;11.396;2023-07-13T05:03:18;101525.28;;;16.67;100.00
48563;BME280;34981;49.104;11.396;2023-07-13T05:05:56;101656.00;;;17.45;100.00
48563;BME280;34981;49.104;11.396;2023-07-13T05:08:23;101610.81;;;17.98;100.00
48563;BME280;34981;49.104;11.396;2023-07-13T05:10:51;101581.78;;;18.58;100.00
48563;BME280;34981;49.104;11.396;2023-07-13T05:13:18;101456.53;;;18.72;100.00
48563;BME280;34981;49.104;11.396;2023-07-13T05:15:47;101309.91;;;18.88;100.00
48563;BME280;34981;49.104;11.396;2023-07-13T05:18:14;101213.31;;;19.25;100.00
48563;BME280;34981;49.104;11.396;2023-07-13T05:20:41;101164.56;;;20.39;100.00
48563;BME280;34981;49.104;11.396;2023-07-13T05:23:08;100869.97;;;20.28;100.00
48563;BME280;34981;49.104;11.396;2023-07-13T05:25:35;100780.19;;;21.95;100.00
48563;BME280;34981;49.104;11.396;2023-07-13T05:28:03;100317.44;;;20.31;100.00
48563;BME280;34981;49.104;11.396;2023-07-13T05:30:30;100201.78;;;19.57;100.00
48563;BME280;34981;49.104;11.396;2023-07-13T05:32:57;100153.09;;;19.04;100.00
48563;BME280;34981;49.104;11.396;2023-07-13T05:35:24;100131.06;;;18.75;100.00
48563;BME280;34981;49.104;11.396;2023-07-13T05:37:51;100085.28;;;18.52;100.00
48563;BME280;34981;49.104;11.396;2023-07-13T05:40:18;100059.13;;;18.44;100.00
48563;BME280;34981;49.104;11.396;2023-07-13T05:42:45;100000.81;;;18.52;100.00
48563;BME280;34981;49.104;11.396;2023-07-13T05:45:12;99974.66;;;18.44;100.00
48563;BME280;34981;49.104;11.396;2023-07-13T05:47:40;99967.72;;;18.48;100.00
48563;BME280;34981;49.104;11.396;2023-07-13T05:50:07;99938.72;;;18.60;100.00
48563;BME280;34981;49.104;11.396;2023-07-13T05:52:34;99913.91;;;18.69;100.00
48563;BME280;34981;49.104;11.396;2023-07-13T05:55:01;99948.13;;;19.01;100.00
48563;BME280;34981;49.104;11.396;2023-07-13T05:57:30;99923.91;;;19.48;100.00
48563;BME280;34981;49.104;11.396;2023-07-13T05:59:57;99873.31;;;19.45;100.00
48563;BME280;34981;49.104;11.396;2023-07-13T06:02:24;99902.91;;;19.78;100.00
48563;BME280;34981;49.104;11.396;2023-07-13T06:04:52;99815.41;;;20.19;100.00
48563;BME280;34981;49.104;11.396;2023-07-13T06:07:19;99538.34;;;20.04;100.00
48563;BME280;34981;49.104;11.396;2023-07-13T06:09:47;99487.25;;;20.33;100.00
48563;BME280;34981;49.104;11.396;2023-07-13T06:12:14;99291.97;;;20.35;100.00
48563;BME280;34981;49.104;11.396;2023-07-13T06:14:41;99004.50;;;20.33;100.00
48563;BME280;34981;49.104;11.396;2023-07-13T06:17:08;98661.47;;;20.10;100.00
48563;BME280;34981;49.104;11.396;2023-07-13T06:19:35;98544.47;;;19.82;100.00
48563;BME280;34981;49.104;11.396;2023-07-13T06:22:02;98440.16;;;19.75;100.00
48563;BME280;34981;49.104;11.396;2023-07-13T06:24:30;98290.88;;;19.75;100.00
48563;BME280;34981;49.104;11.396;2023-07-13T06:26:57;98140.53;;;19.72;100.00
48563;BME280;34981;49.104;11.396;2023-07-13T06:29:24;98098.50;;;19.63;100.00
48563;BME280;34981;49.104;11.396;2023-07-13T06:31:51;98013.06;;;19.77;100.00
48563;BME280;34981;49.104;11.396;2023-07-13T06:34:18;98016.00;;;19.91;100.00
48563;BME280;34981;49.104;11.396;2023-07-13T06:36:45;97972.19;;;20.16;100.00
48563;BME280;34981;49.104;11.396;2023-07-13T06:39:13;97936.22;;;20.82;100.00
48563;BME280;34981;49.104;11.396;2023-07-13T06:41:40;97723.97;;;20.68;100.00
48563;BME280;34981;49.104;11.396;2023-07-13T06:44:10;97512.09;;;20.75;100.00
48563;BME280;34981;49.104;11.396;2023-07-13T06:46:37;97275.81;;;20.54;100.00
48563;BME280;34981;49.104;11.396;2023-07-13T06:49:04;97185.19;;;20.19;100.00
48563;BME280;34981;49.104;11.396;2023-07-13T06:51:31;97109.41;;;20.44;100.00
48563;BME280;34981;49.104;11.396;2023-07-13T06:53:58;97124.16;;;20.43;100.00
48563;BME280;34981;49.104;11.396;2023-07-13T06:56:26;97150.19;;;21.04;100.00
48563;BME280;34981;49.104;11.396;2023-07-13T06:58:53;97150.16;;;21.53;100.00
48563;BME280;34981;49.104;11.396;2023-07-13T07:01:20;97058.53;;;22.04;100.00
48563;BME280;34981;49.104;11.396;2023-07-13T07:03:47;96796.31;;;22.18;100.00
48563;BME280;34981;49.104;11.396;2023-07-13T07:06:18;96586.47;;;21.96;100.00
48563;BME280;34981;49.104;11.396;2023-07-13T07:08:46;96484.38;;;21.87;100.00
48563;BME280;34981;49.104;11.396;2023-07-13T07:11:16;96394.38;;;22.15;100.00
48563;BME280;34981;49.104;11.396;2023-07-13T07:13:43;96194.41;;;21.91;100.00
48563;BME280;34981;49.104;11.396;2023-07-13T07:16:10;96219.56;;;22.38;100.00
48563;BME280;34981;49.104;11.396;2023-07-13T07:18:37;96047.56;;;22.43;100.00
48563;BME280;34981;49.104;11.396;2023-07-13T07:21:04;96091.28;;;22.64;100.00
48563;BME280;34981;49.104;11.396;2023-07-13T07:23:31;95946.84;;;22.77;100.00
48563;BME280;34981;49.104;11.396;2023-07-13T07:25:59;95794.25;;;22.81;100.00
48563;BME280;34981;49.104;11.396;2023-07-13T07:28:26;95676.25;;;22.30;100.00
48563;BME280;34981;49.104;11.396;2023-07-13T07:31:12;95583.41;;;22.25;100.00
48563;BME280;34981;49.104;11.396;2023-07-13T07:33:42;95525.22;;;22.12;100.00
48563;BME280;34981;49.104;11.396;2023-07-13T07:36:10;95457.13;;;22.11;100.00
48563;BME280;34981;49.104;11.396;2023-07-13T07:38:41;95419.72;;;22.34;100.00
48563;BME280;34981;49.104;11.396;2023-07-13T07:41:08;95312.97;;;22.38;100.00
48563;BME280;34981;49.104;11.396;2023-07-13T07:43:38;95265.84;;;22.48;100.00
48563;BME280;34981;49.104;11.396;2023-07-13T07:46:06;95230.34;;;22.97;100.00
48563;BME280;34981;49.104;11.396;2023-07-13T07:48:33;95158.16;;;23.12;100.00
48563;BME280;34981;49.104;11.396;2023-07-13T07:51:00;95087.69;;;22.64;100.00
48563;BME280;34981;49.104;11.396;2023-07-13T07:53:28;95091.88;;;22.80;100.00
48563;BME280;34981;49.104;11.396;2023-07-13T07:55:58;95046.84;;;22.78;100.00
48563;BME280;34981;49.104;11.396;2023-07-13T07:58:45;95063.78;;;22.87;100.00
48563;BME280;34981;49.104;11.396;2023-07-13T08:01:15;95106.13;;;23.46;100.00
48563;BME280;34981;49.104;11.396;2023-07-13T08:03:46;95010.84;;;23.73;100.00
48563;BME280;34981;49.104;11.396;2023-07-13T08:06:16;94991.09;;;24.00;100.00
48563;BME280;34981;49.104;11.396;2023-07-13T08:09:03;94958.78;;;24.24;100.00
48563;BME280;34981;49.104;11.396;2023-07-13T08:11:31;94911.72;;;24.29;100.00
48563;BME280;34981;49.104;11.396;2023-07-13T08:14:01;94871.81;;;24.49;100.00
48563;BME280;34981;49.104;11.396;2023-07-13T08:16:28;94859.81;;;24.86;100.00
48563;BME280;34981;49.104;11.396;2023-07-13T08:18:56;94819.78;;;24.92;100.00
48563;BME280;34981;49.104;11.396;2023-07-13T08:21:23;94811.03;;;24.65;100.00
48563;BME280;34981;49.104;11.396;2023-07-13T08:23:50;94857.75;;;24.65;100.00
48563;BME280;34981;49.104;11.396;2023-07-13T08:26:17;94866.16;;;25.00;100.00
48563;BME280;34981;49.104;11.396;2023-07-13T08:28:44;94859.56;;;25.19;100.00
48563;BME280;34981;49.104;11.396;2023-07-13T08:31:12;94842.66;;;25.24;100.00
48563;BME280;34981;49.104;11.396;2023-07-13T08:33:39;94898.03;;;25.05;100.00
48563;BME280;34981;49.104;11.396;2023-07-13T08:36:07;94915.50;;;25.69;100.00
48563;BME280;34981;49.104;11.396;2023-07-13T08:38:35;94961.09;;;25.63;100.00
48563;BME280;34981;49.104;11.396;2023-07-13T08:41:05;95046.50;;;25.88;100.00
48563;BME280;34981;49.104;11.396;2023-07-13T08:43:37;95146.97;;;25.46;100.00
48563;BME280;34981;49.104;11.396;2023-07-13T08:46:08;95144.72;;;25.63;100.00
48563;BME280;34981;49.104;11.396;2023-07-13T08:48:38;95160.44;;;25.58;100.00
48563;BME280;34981;49.104;11.396;2023-07-13T08:51:23;95160.69;;;26.19;100.00
48563;BME280;34981;49.104;11.396;2023-07-13T08:53:52;95504.34;;;23.48;100.00
48563;BME280;34981;49.104;11.396;2023-07-13T08:56:22;95769.13;;;23.42;100.00
48563;BME280;34981;49.104;11.396;2023-07-13T08:58:51;95903.75;;;22.49;100.00
48563;BME280;34981;49.104;11.396;2023-07-13T09:01:24;95984.06;;;22.78;100.00
48563;BME280;34981;49.104;11.396;2023-07-13T09:04:05;96002.59;;;23.64;100.00
48563;BME280;34981;49.104;11.396;2023-07-13T09:07:24;96011.59;;;23.09;100.00
48563;BME280;34981;49.104;11.396;2023-07-13T09:12:11;96062.25;;;23.95;100.00
48563;BME280;34981;49.104;11.396;2023-07-13T09:14:42;96079.03;;;23.50;100.00
48563;BME280;34981;49.104;11.396;2023-07-13T09:17:27;96150.75;;;23.37;100.00
48563;BME280;34981;49.104;11.396;2023-07-13T09:20:00;96185.13;;;23.58;100.00
48563;BME280;34981;49.104;11.396;2023-07-13T09:22:31;96220.78;;;23.71;100.00
48563;BME280;34981;49.104;11.396;2023-07-13T09:25:05;96212.69;;;23.25;100.00
48563;BME280;34981;49.104;11.396;2023-07-13T09:27:41;96188.13;;;23.29;100.00
48563;BME280;34981;49.104;11.396;2023-07-13T09:32:43;96180.91;;;22.64;100.00
48563;BME280;34981;49.104;11.396;2023-07-13T09:35:12;96194.66;;;23.00;100.00
48563;BME280;34981;49.104;11.396;2023-07-13T09:37:43;96200.09;;;23.61;100.00
48563;BME280;34981;49.104;11.396;2023-07-13T09:40:13;96187.69;;;23.15;100.00
48563;BME280;34981;49.104;11.396;2023-07-13T09:42:44;96184.56;;;23.41;100.00
48563;BME280;34981;49.104;11.396;2023-07-13T09:45:11;96191.66;;;23.42;100.00
48563;BME280;34981;49.104;11.396;2023-07-13T09:47:43;96187.50;;;23.60;100.00
48563;BME280;34981;49.104;11.396;2023-07-13T09:50:15;96196.31;;;23.65;100.00
48563;BME280;34981;49.104;11.396;2023-07-13T09:52:44;96198.75;;;24.23;100.00
48563;BME280;34981;49.104;11.396;2023-07-13T09:57:57;96183.28;;;23.62;100.00
48563;BME280;34981;49.104;11.396;2023-07-13T10:00:26;96186.41;;;23.49;100.00
48563;BME280;34981;49.104;11.396;2023-07-13T10:05:27;96201.38;;;23.51;100.00
48563;BME280;34981;49.104;11.396;2023-07-13T10:07:55;96207.44;;;23.20;100.00
48563;BME280;34981;49.104;11.396;2023-07-13T10:10:23;96205.41;;;23.05;100.00
48563;BME280;34981;49.104;11.396;2023-07-13T10:12:50;96215.00;;;23.88;100.00
48563;BME280;34981;49.104;11.396;2023-07-13T10:15:19;96226.47;;;24.61;100.00
48563;BME280;34981;49.104;11.396;2023-07-13T10:17:51;96208.44;;;24.48;100.00
48563;BME280;34981;49.104;11.396;2023-07-13T10:20:19;96208.13;;;24.65;100.00
48563;BME280;34981;49.104;11.396;2023-07-13T10:25:22;96184.75;;;24.28;100.00
48563;BME280;34981;49.104;11.396;2023-07-13T10:27:51;96170.75;;;24.33;100.00
48563;BME280;34981;49.104;11.396;2023-07-13T10:30:21;96158.53;;;23.75;100.00
48563;BME280;34981;49.104;11.396;2023-07-13T10:32:50;96158.09;;;23.73;100.00
48563;BME280;34981;49.104;11.396;2023-07-13T10:35:17;96126.69;;;23.58;100.00
48563;BME280;34981;49.104;11.396;2023-07-13T10:37:49;96146.38;;;23.48;100.00
48563;BME280;34981;49.104;11.396;2023-07-13T10:40:21;96148.25;;;23.72;100.00
48563;BME280;34981;49.104;11.396;2023-07-13T10:42:50;96136.38;;;24.11;100.00
48563;BME280;34981;49.104;11.396;2023-07-13T10:45:20;96122.88;;;24.34;100.00
48563;BME280;34981;49.104;11.396;2023-07-13T10:47:48;96113.66;;;24.26;100.00
48563;BME280;34981;49.104;11.396;2023-07-13T10:50:20;96115.44;;;23.91;100.00
48563;BME280;34981;49.104;11.396;2023-07-13T10:52:49;96114.88;;;23.29;100.00
48563;BME280;34981;49.104;11.396;2023-07-13T10:55:31;96119.19;;;24.42;100.00
48563;BME280;34981;49.104;11.396;2023-07-13T10:58:02;96117.28;;;24.77;100.00
48563;BME280;34981;49.104;11.396;2023-07-13T11:00:31;96117.16;;;25.21;100.00
48563;BME280;34981;49.104;11.396;2023-07-13T11:02:59;96112.03;;;25.39;100.00
48563;BME280;34981;49.104;11.396;2023-07-13T11:05:29;96095.28;;;25.28;100.00
48563;BME280;34981;49.104;11.396;2023-07-13T11:08:12;96085.88;;;25.29;100.00
48563;BME280;34981;49.104;11.396;2023-07-13T11:15:59;96079.56;;;25.29;100.00
48563;BME280;34981;49.104;11.396;2023-07-13T11:18:27;96073.16;;;25.40;100.00
48563;BME280;34981;49.104;11.396;2023-07-13T11:21:12;96069.47;;;25.71;100.00
48563;BME280;34981;49.104;11.396;2023-07-13T11:24:14;96060.91;;;25.18;100.00
48563;BME280;34981;49.104;11.396;2023-07-13T11:26:50;96065.47;;;25.49;100.00
48563;BME280;34981;49.104;11.396;2023-07-13T11:31:52;96060.25;;;25.44;100.00
48563;BME280;34981;49.104;11.396;2023-07-13T11:34:25;96063.19;;;25.71;100.00
48563;BME280;34981;49.104;11.396;2023-07-13T11:36:54;96056.88;;;25.70;100.00
48563;BME280;34981;49.104;11.396;2023-07-13T11:39:25;96047.25;;;25.61;100.00
48563;BME280;34981;49.104;11.396;2023-07-13T11:41:59;96053.72;;;25.91;100.00
48563;BME280;34981;49.104;11.396;2023-07-13T11:44:28;96053.94;;;25.82;100.00
48563;BME280;34981;49.104;11.396;2023-07-13T11:46:57;96055.78;;;25.55;100.00
48563;BME280;34981;49.104;11.396;2023-07-13T11:49:28;96055.19;;;25.66;100.00
48563;BME280;34981;49.104;11.396;2023-07-13T11:51:59;96055.34;;;25.34;98.37
48563;BME280;34981;49.104;11.396;2023-07-13T11:54:31;96055.69;;;25.33;100.00
48563;BME280;34981;49.104;11.396;2023-07-13T11:57:06;96050.38;;;25.43;100.00
48563;BME280;34981;49.104;11.396;2023-07-13T11:59:34;96050.97;;;25.72;99.55
48563;BME280;34981;49.104;11.396;2023-07-13T12:02:08;96059.59;;;25.89;100.00
48563;BME280;34981;49.104;11.396;2023-07-13T12:04:42;96049.69;;;25.85;100.00
48563;BME280;34981;49.104;11.396;2023-07-13T12:07:16;96045.78;;;25.67;96.01
48563;BME280;34981;49.104;11.396;2023-07-13T12:09:44;96062.28;;;25.86;98.17
48563;BME280;34981;49.104;11.396;2023-07-13T12:12:17;96049.94;;;25.99;95.26
48563;BME280;34981;49.104;11.396;2023-07-13T12:14:44;96047.75;;;26.31;96.86
48563;BME280;34981;49.104;11.396;2023-07-13T12:17:22;96047.38;;;26.32;93.53
48563;BME280;34981;49.104;11.396;2023-07-13T12:19:50;96047.69;;;26.50;94.96
48563;BME280;34981;49.104;11.396;2023-07-13T12:22:18;96047.06;;;26.15;89.93
48563;BME280;34981;49.104;11.396;2023-07-13T12:24:46;96041.66;;;25.99;92.20
48563;BME280;34981;49.104;11.396;2023-07-13T12:27:22;96033.81;;;26.01;91.15
48563;BME280;34981;49.104;11.396;2023-07-13T12:29:58;96044.78;;;26.20;94.18
48563;BME280;34981;49.104;11.396;2023-07-13T12:32:25;96040.31;;;26.12;95.76
48563;BME280;34981;49.104;11.396;2023-07-13T12:34:54;96042.53;;;26.49;93.48
48563;BME280;34981;49.104;11.396;2023-07-13T12:37:23;96041.38;;;26.50;89.86
48563;BME280;34981;49.104;11.396;2023-07-13T12:39:51;96026.53;;;26.58;92.87
48563;BME280;34981;49.104;11.396;2023-07-13T12:42:25;96028.38;;;26.77;90.28
48563;BME280;34981;49.104;11.396;2023-07-13T12:44:56;96024.72;;;26.43;91.03
48563;BME280;34981;49.104;11.396;2023-07-13T12:47:24;96036.53;;;26.20;93.03
48563;BME280;34981;49.104;11.396;2023-07-13T12:49:55;96022.13;;;26.30;92.13
48563;BME280;34981;49.104;11.396;2023-07-13T12:52:27;96032.00;;;26.31;91.24
48563;BME280;34981;49.104;11.396;2023-07-13T12:54:58;96026.69;;;26.42;92.72
48563;BME280;34981;49.104;11.396;2023-07-13T12:57:38;96030.03;;;26.55;93.17
48563;BME280;34981;49.104;11.396;2023-07-13T13:00:10;96029.06;;;26.44;92.00
48563;BME280;34981;49.104;11.396;2023-07-13T13:02:48;96018.94;;;26.78;93.45
48563;BME280;34981;49.104;11.396;2023-07-13T13:05:18;96019.00;;;26.55;91.78
48563;BME280;34981;49.104;11.396;2023-07-13T13:07:46;96019.09;;;26.35;91.15